Time;durP1;ratioP1;P1;durP2;ratioP2;P2;SDS_P1;SDS_P2;PMS_P1;PMS_P2;Temp;Humidity;BMP_temperature;BMP_pressure;BME280_temperature;BME280_humidity;BME280_pressure;Samples;Min_cycle;Max_cycle;Signal;HPM_P1;HPM_P2
2024/03/02 00:00:13;;;;;;;10.15;7.70;;;17.60;70.00;;;;;;4994619;28;20424;-83
2024/03/02 00:02:45;;;;;;;9.37;6.77;;;17.60;70.00;;;;;;4981625;28;20161;-84
2024/03/02 00:05:11;;;;;;;9.73;6.82;;;17.60;70.00;;;;;;4990227;28;20312;-84
2024/03/02 00:07:37;;;;;;;10.77;6.90;;;17.60;70.00;;;;;;4980302;28;20046;-84
2024/03/02 00:10:07;;;;;;;7.22;6.38;;;17.60;70.00;;;;;;4994120;28;20097;-84
2024/03/02 00:12:33;;;;;;;7.95;6.57;;;17.60;70.00;;;;;;4996381;28;20038;-83
2024/03/02 00:15:02;;;;;;;7.20;6.00;;;17.60;70.00;;;;;;4979780;28;20042;-80
2024/03/02 00:17:28;;;;;;;9.95;6.50;;;17.50;70.00;;;;;;4995293;28;20039;-85
2024/03/02 00:19:53;;;;;;;6.80;6.10;;;17.50;70.70;;;;;;4985492;28;20042;-85
2024/03/02 00:22:19;;;;;;;6.85;5.80;;;17.50;70.00;;;;;;4979386;28;20039;-84
2024/03/02 00:24:44;;;;;;;9.02;6.30;;;17.50;70.10;;;;;;4982874;28;20172;-83
2024/03/02 00:27:11;;;;;;;6.85;6.13;;;17.50;70.00;;;;;;4984208;28;20407;-82
2024/03/02 00:29:36;;;;;;;6.55;5.88;;;17.50;70.00;;;;;;4976480;28;20073;-82
2024/03/02 00:32:02;;;;;;;6.97;5.57;;;17.50;69.80;;;;;;4982304;28;20055;-81
2024/03/02 00:34:28;;;;;;;7.53;5.00;;;17.50;70.10;;;;;;4984866;28;20483;-82
2024/03/02 00:36:53;;;;;;;6.75;5.68;;;17.50;70.10;;;;;;4979394;28;20449;-82
2024/03/02 00:39:19;;;;;;;7.03;5.38;;;17.50;71.00;;;;;;4983021;28;20723;-82
2024/03/02 00:41:44;;;;;;;6.75;5.10;;;17.40;70.30;;;;;;4982797;28;20026;-82
2024/03/02 00:44:12;;;;;;;6.97;5.28;;;17.40;71.00;;;;;;4984668;28;20058;-82
2024/03/02 00:46:41;;;;;;;6.75;5.13;;;17.40;70.30;;;;;;4983365;28;20023;-82
2024/03/02 00:49:19;;;;;;;5.65;5.10;;;17.40;70.40;;;;;;4997147;28;20058;-81
2024/03/02 00:51:47;;;;;;;7.00;4.78;;;17.40;70.40;;;;;;4984749;28;20125;-82
2024/03/02 00:54:13;;;;;;;7.25;5.30;;;17.40;70.30;;;;;;4983113;28;20041;-83
2024/03/02 00:56:39;;;;;;;7.30;5.63;;;17.40;70.40;;;;;;4981244;28;20065;-82
2024/03/02 00:59:05;;;;;;;6.13;5.00;;;17.30;70.40;;;;;;4950626;28;20054;-76
2024/03/02 01:01:31;;;;;;;5.78;4.70;;;17.30;71.10;;;;;;4983389;28;20129;-75
2024/03/02 01:03:57;;;;;;;5.38;4.88;;;17.30;70.40;;;;;;4964798;28;20050;-75
2024/03/02 01:06:22;;;;;;;5.07;4.55;;;17.30;70.10;;;;;;4958603;28;20049;-75
2024/03/02 01:08:50;;;;;;;6.50;4.90;;;17.30;70.30;;;;;;4979014;28;20046;-74
2024/03/02 01:11:16;;;;;;;5.10;4.70;;;17.30;70.40;;;;;;4976067;28;20066;-74
2024/03/02 01:13:42;;;;;;;5.60;5.10;;;17.30;70.30;;;;;;5002196;28;20073;-74
2024/03/02 01:16:07;;;;;;;4.70;4.30;;;17.30;70.40;;;;;;5000168;28;20057;-75
2024/03/02 01:18:33;;;;;;;4.93;4.40;;;17.30;70.30;;;;;;4965113;28;20049;-75
2024/03/02 01:20:59;;;;;;;4.60;4.20;;;17.20;70.20;;;;;;4967187;28;20089;-75
2024/03/02 01:23:24;;;;;;;4.40;4.00;;;17.30;70.20;;;;;;4984042;28;20038;-75
2024/03/02 01:25:51;;;;;;;4.53;4.13;;;17.20;70.20;;;;;;5004957;28;20062;-74
2024/03/02 01:28:17;;;;;;;4.45;4.07;;;17.20;70.30;;;;;;4988325;28;20530;-75
2024/03/02 01:30:42;;;;;;;5.22;4.50;;;17.20;70.30;;;;;;4999880;28;20047;-75
2024/03/02 01:33:08;;;;;;;5.00;4.50;;;17.20;70.30;;;;;;4987069;28;20039;-76
2024/03/02 01:35:34;;;;;;;4.88;4.05;;;17.20;70.20;;;;;;4987893;28;20038;-75
2024/03/02 01:38:00;;;;;;;4.50;4.20;;;17.20;70.30;;;;;;4987520;28;20043;-75
2024/03/02 01:40:26;;;;;;;4.30;3.90;;;17.20;70.30;;;;;;4985351;28;20070;-75
2024/03/02 01:42:57;;;;;;;6.47;4.30;;;17.20;70.30;;;;;;4999192;28;20061;-75
2024/03/02 01:45:23;;;;;;;3.72;3.30;;;17.10;70.40;;;;;;4998383;28;20500;-75
2024/03/02 01:47:49;;;;;;;4.45;3.55;;;17.20;70.40;;;;;;4954289;28;20042;-76
2024/03/02 01:50:14;;;;;;;5.47;3.55;;;17.10;70.30;;;;;;4966427;28;20538;-75
2024/03/02 01:52:40;;;;;;;3.75;3.55;;;17.20;70.40;;;;;;5001378;28;20419;-75
2024/03/02 01:55:07;;;;;;;3.53;3.33;;;17.10;70.30;;;;;;4984517;28;20066;-76
2024/03/02 01:57:33;;;;;;;3.65;3.35;;;17.10;70.30;;;;;;4984075;28;20121;-75
2024/03/02 01:59:58;;;;;;;3.70;3.40;;;17.10;70.30;;;;;;5000754;28;20034;-75
2024/03/02 02:02:24;;;;;;;3.38;2.92;;;17.10;70.20;;;;;;4985832;28;20113;-75
2024/03/02 02:04:49;;;;;;;3.40;3.20;;;17.10;70.30;;;;;;5003769;28;20092;-75
2024/03/02 02:07:15;;;;;;;3.55;3.25;;;17.10;70.30;;;;;;4977575;28;20039;-75
2024/03/02 02:09:44;;;;;;;4.13;3.30;;;17.10;70.30;;;;;;4969534;28;20044;-75
2024/03/02 02:12:09;;;;;;;5.22;3.90;;;17.10;70.30;;;;;;4997072;28;20042;-75
2024/03/02 02:14:35;;;;;;;2.92;2.65;;;17.10;70.30;;;;;;5002838;28;20048;-75
2024/03/02 02:17:01;;;;;;;3.72;3.42;;;17.00;70.30;;;;;;4986365;28;20096;-75
2024/03/02 02:19:27;;;;;;;3.38;3.08;;;17.10;70.30;;;;;;4967855;28;20050;-74
2024/03/02 02:21:52;;;;;;;3.65;3.10;;;17.10;70.40;;;;;;4979068;28;20039;-75
2024/03/02 02:24:18;;;;;;;3.72;3.38;;;17.00;71.00;;;;;;4984326;28;20137;-75
2024/03/02 02:26:44;;;;;;;3.30;3.10;;;17.00;70.30;;;;;;4966417;28;20042;-75
2024/03/02 02:29:09;;;;;;;3.03;2.83;;;17.00;70.20;;;;;;4984492;28;20054;-75
2024/03/02 02:31:38;;;;;;;2.85;2.65;;;17.00;70.30;;;;;;4983941;28;20587;-75
2024/03/02 02:34:04;;;;;;;3.05;2.78;;;17.00;70.30;;;;;;4997979;28;20035;-74
2024/03/02 02:36:30;;;;;;;4.05;2.70;;;17.00;70.20;;;;;;4956288;28;20042;-74
2024/03/02 02:38:56;;;;;;;2.53;2.33;;;17.00;70.30;;;;;;4986528;28;20065;-75
2024/03/02 02:41:21;;;;;;;3.28;2.83;;;17.00;70.30;;;;;;4979844;28;20037;-75
2024/03/02 02:43:47;;;;;;;3.40;2.97;;;17.00;70.30;;;;;;4986045;28;20403;-75
2024/03/02 02:46:12;;;;;;;3.00;2.80;;;16.90;71.00;;;;;;4986944;28;20042;-75
2024/03/02 02:48:38;;;;;;;2.47;2.28;;;17.00;70.30;;;;;;5000077;28;20054;-75
2024/03/02 02:51:04;;;;;;;2.92;2.72;;;17.00;70.30;;;;;;4966201;28;20022;-75
2024/03/02 02:53:29;;;;;;;2.78;2.58;;;17.00;70.30;;;;;;5000921;28;20045;-75
2024/03/02 02:55:55;;;;;;;2.65;2.50;;;16.90;70.30;;;;;;5000969;28;20587;-75
2024/03/02 02:58:20;;;;;;;3.33;2.28;;;16.90;70.30;;;;;;4951629;28;20163;-74
2024/03/02 03:00:46;;;;;;;2.78;2.58;;;16.90;70.40;;;;;;4999872;28;20063;-75
2024/03/02 03:03:12;;;;;;;2.50;2.30;;;16.90;70.30;;;;;;4980878;28;20042;-75
2024/03/02 03:05:37;;;;;;;2.83;2.63;;;16.90;70.30;;;;;;4967425;28;20519;-75
2024/03/02 03:08:03;;;;;;;2.15;2.05;;;16.90;70.30;;;;;;4983047;28;20125;-75
2024/03/02 03:10:29;;;;;;;2.95;2.40;;;16.90;70.30;;;;;;4997087;28;20460;-75
2024/03/02 03:12:56;;;;;;;2.47;2.28;;;16.90;70.40;;;;;;4979724;28;20038;-75
2024/03/02 03:15:21;;;;;;;2.42;2.22;;;16.90;70.50;;;;;;4983538;28;20038;-75
2024/03/02 03:17:47;;;;;;;2.45;2.25;;;16.90;70.40;;;;;;4979914;28;20475;-75
2024/03/02 03:20:14;;;;;;;2.33;2.10;;;16.90;70.40;;;;;;4980348;28;20415;-76
2024/03/02 03:22:39;;;;;;;2.70;2.50;;;16.90;70.30;;;;;;4982612;28;20030;-75
2024/03/02 03:25:07;;;;;;;2.10;1.90;;;16.90;70.30;;;;;;4999527;28;20045;-75
2024/03/02 03:27:32;;;;;;;2.13;2.03;;;16.90;71.20;;;;;;5000453;28;20041;-75
2024/03/02 03:29:58;;;;;;;2.75;2.53;;;16.90;70.40;;;;;;4988063;28;20042;-75
2024/03/02 03:32:24;;;;;;;3.22;2.10;;;16.90;70.30;;;;;;4969878;28;20125;-75
2024/03/02 03:34:50;;;;;;;3.13;2.83;;;16.90;70.30;;;;;;4971655;28;20038;-74
2024/03/02 03:37:15;;;;;;;2.33;2.15;;;16.90;70.30;;;;;;4950171;28;20061;-75
2024/03/02 03:39:41;;;;;;;2.40;2.03;;;16.90;70.30;;;;;;4981610;28;20564;-75
2024/03/02 03:42:06;;;;;;;1.80;1.70;;;16.80;70.30;;;;;;4982980;28;20039;-75
2024/03/02 03:44:33;;;;;;;2.40;2.20;;;16.90;70.30;;;;;;5000033;28;20042;-75
2024/03/02 03:46:58;;;;;;;2.03;1.92;;;16.80;70.10;;;;;;4997667;28;20089;-75
2024/03/02 03:49:24;;;;;;;2.05;1.95;;;16.90;70.30;;;;;;4982942;28;20543;-75
2024/03/02 03:51:49;;;;;;;2.20;2.03;;;16.80;70.20;;;;;;4983284;28;20034;-74
2024/03/02 03:54:15;;;;;;;2.13;1.90;;;16.90;70.40;;;;;;4982955;28;20062;-75
2024/03/02 03:56:41;;;;;;;1.80;1.70;;;16.90;70.20;;;;;;4999907;28;20047;-74
2024/03/02 03:59:06;;;;;;;2.05;1.80;;;16.80;70.10;;;;;;4969609;28;20746;-75
2024/03/02 04:01:32;;;;;;;1.92;1.83;;;16.80;70.20;;;;;;4983987;28;20522;-75
2024/03/02 04:03:57;;;;;;;2.20;2.00;;;16.80;70.10;;;;;;4996883;28;20508;-74
2024/03/02 04:06:23;;;;;;;1.90;1.55;;;16.80;70.10;;;;;;4984198;28;20444;-75
2024/03/02 04:08:49;;;;;;;2.25;2.10;;;16.80;70.30;;;;;;4985028;28;20124;-75
2024/03/02 04:11:14;;;;;;;1.65;1.55;;;16.80;70.30;;;;;;4979935;28;20057;-75
2024/03/02 04:13:40;;;;;;;1.50;1.40;;;16.80;70.30;;;;;;4968652;28;20049;-75
2024/03/02 04:16:06;;;;;;;1.90;1.70;;;16.80;70.20;;;;;;4981348;28;20045;-74
2024/03/02 04:18:35;;;;;;;1.60;1.50;;;16.80;70.30;;;;;;4995664;28;20053;-75
2024/03/02 04:21:00;;;;;;;1.50;1.40;;;16.80;70.10;;;;;;4967013;28;20034;-75
2024/03/02 04:23:28;;;;;;;1.70;1.60;;;16.80;70.20;;;;;;4964493;28;20576;-75
2024/03/02 04:25:54;;;;;;;1.92;1.83;;;16.80;70.40;;;;;;5000928;28;20048;-75
2024/03/02 04:28:19;;;;;;;2.60;1.60;;;16.80;70.50;;;;;;4950281;28;20134;-75
2024/03/02 04:30:45;;;;;;;2.05;1.80;;;16.80;70.40;;;;;;4986275;28;20059;-75
2024/03/02 04:33:11;;;;;;;1.75;1.50;;;16.80;70.30;;;;;;4999607;28;20042;-75
2024/03/02 04:35:39;;;;;;;1.40;1.30;;;16.80;70.40;;;;;;4980672;28;20070;-75
2024/03/02 04:38:05;;;;;;;2.33;1.50;;;16.80;70.30;;;;;;4979685;28;20045;-75
2024/03/02 04:40:32;;;;;;;1.65;1.55;;;16.80;70.20;;;;;;4984776;28;20046;-75
2024/03/02 04:42:59;;;;;;;1.40;1.30;;;16.80;70.30;;;;;;4997321;28;20575;-75
2024/03/02 04:45:24;;;;;;;2.20;1.77;;;16.80;70.30;;;;;;4995995;28;20329;-75
2024/03/02 04:47:50;;;;;;;1.40;1.30;;;16.80;70.20;;;;;;4981794;28;20559;-75
2024/03/02 04:50:15;;;;;;;1.50;1.40;;;16.80;70.30;;;;;;4978944;28;20061;-75
2024/03/02 04:52:41;;;;;;;1.70;1.38;;;16.70;70.30;;;;;;4978917;28;20125;-75
2024/03/02 04:55:09;;;;;;;1.83;1.42;;;16.70;71.10;;;;;;4967399;28;20058;-75
2024/03/02 04:57:35;;;;;;;1.40;1.30;;;16.70;71.00;;;;;;4998800;28;20500;-75
2024/03/02 05:00:01;;;;;;;1.10;1.00;;;16.70;70.20;;;;;;4999630;28;20069;-75
2024/03/02 05:02:26;;;;;;;1.30;1.20;;;16.70;70.30;;;;;;4999404;28;20445;-75
2024/03/02 05:04:52;;;;;;;1.55;1.38;;;16.70;70.30;;;;;;4986788;28;20043;-75
2024/03/02 05:07:17;;;;;;;1.20;1.10;;;16.70;70.50;;;;;;5004130;28;20096;-75
2024/03/02 05:09:43;;;;;;;1.63;1.52;;;16.70;70.50;;;;;;4989057;28;20076;-75
2024/03/02 05:14:52;;;;;;;1.30;1.20;;;16.70;70.60;;;;;;4987703;28;20518;-74
2024/03/02 05:17:18;;;;;;;1.40;1.30;;;16.70;70.50;;;;;;4988751;28;20038;-75
2024/03/02 05:19:43;;;;;;;1.20;1.10;;;16.70;70.50;;;;;;4988445;28;20046;-75
2024/03/02 05:22:09;;;;;;;1.35;1.25;;;16.70;70.40;;;;;;4986117;28;20419;-75
2024/03/02 05:24:34;;;;;;;1.02;0.93;;;16.70;70.50;;;;;;4998307;28;20069;-75
2024/03/02 05:27:00;;;;;;;1.05;0.95;;;16.70;70.50;;;;;;4994814;28;20050;-75
2024/03/02 05:29:26;;;;;;;1.23;1.00;;;16.70;71.20;;;;;;4998602;28;20034;-75
2024/03/02 05:31:51;;;;;;;1.23;1.10;;;16.70;70.50;;;;;;4987992;28;20509;-75
2024/03/02 05:34:18;;;;;;;1.38;1.27;;;16.70;70.50;;;;;;4969595;28;20038;-77
2024/03/02 05:36:44;;;;;;;1.40;1.20;;;16.70;70.40;;;;;;4971631;28;20042;-75
2024/03/02 05:39:10;;;;;;;1.35;1.25;;;16.70;70.40;;;;;;4986240;28;20093;-75
2024/03/02 05:41:35;;;;;;;1.52;1.13;;;16.70;70.30;;;;;;4981080;28;20074;-75
2024/03/02 05:44:01;;;;;;;1.20;1.10;;;16.70;70.30;;;;;;4990142;28;20081;-75
2024/03/02 05:46:27;;;;;;;0.95;0.95;;;16.70;70.30;;;;;;4985943;28;20101;-75
2024/03/02 05:48:52;;;;;;;1.00;1.00;;;16.70;70.30;;;;;;4985363;28;20054;-75
2024/03/02 05:51:18;;;;;;;1.42;1.27;;;16.70;70.30;;;;;;4982625;28;20038;-76
2024/03/02 05:53:44;;;;;;;1.10;1.02;;;16.70;70.30;;;;;;4985826;28;20077;-75
2024/03/02 05:56:09;;;;;;;1.40;1.30;;;16.70;70.30;;;;;;4986981;28;20541;-75
2024/03/02 06:01:19;;;;;;;0.80;0.80;;;16.70;70.80;;;;;;4999464;28;20182;-77
2024/03/02 06:03:45;;;;;;;1.05;0.98;;;16.70;70.90;;;;;;4987806;28;20494;-75
2024/03/02 06:06:10;;;;;;;1.42;1.00;;;16.70;71.20;;;;;;4973495;28;20484;-75
2024/03/02 06:08:36;;;;;;;1.20;1.10;;;16.70;71.10;;;;;;5000649;28;20056;-75
2024/03/02 06:11:01;;;;;;;0.60;0.60;;;16.70;71.30;;;;;;4996771;28;20096;-75
2024/03/02 06:13:27;;;;;;;1.02;0.90;;;16.70;71.30;;;;;;4998799;28;20046;-75
2024/03/02 06:15:53;;;;;;;1.08;0.80;;;16.70;71.40;;;;;;4965324;28;20034;-75
2024/03/02 06:18:18;;;;;;;0.93;0.80;;;16.70;71.60;;;;;;4969690;28;20051;-76
2024/03/02 06:20:44;;;;;;;1.00;0.90;;;16.70;71.50;;;;;;4986453;28;20046;-75
2024/03/02 06:23:10;;;;;;;0.80;0.80;;;16.70;71.50;;;;;;4988026;28;20053;-76
2024/03/02 06:25:35;;;;;;;1.30;1.08;;;16.70;71.40;;;;;;4981127;28;20039;-75
2024/03/02 06:28:01;;;;;;;0.80;0.80;;;16.70;71.40;;;;;;4986886;28;20052;-75
2024/03/02 06:30:26;;;;;;;0.65;0.65;;;16.70;71.30;;;;;;4985019;28;20482;-75
2024/03/02 06:32:52;;;;;;;1.45;0.90;;;16.70;71.40;;;;;;4985616;28;20045;-75
2024/03/02 06:35:17;;;;;;;0.93;0.90;;;16.70;71.50;;;;;;4988663;28;20117;-74
2024/03/02 06:37:43;;;;;;;0.68;0.63;;;16.70;71.60;;;;;;4979590;28;20057;-75
2024/03/02 06:40:09;;;;;;;0.73;0.73;;;16.70;71.40;;;;;;4999128;28;20098;-75
2024/03/02 06:42:34;;;;;;;0.90;0.90;;;16.70;71.50;;;;;;5000230;28;20419;-75
2024/03/02 06:45:00;;;;;;;0.70;0.70;;;16.70;71.40;;;;;;4986658;28;20066;-76
2024/03/02 06:47:26;;;;;;;1.13;0.80;;;16.70;71.20;;;;;;4981036;28;20022;-75
2024/03/02 06:49:53;;;;;;;0.60;0.60;;;16.80;71.00;;;;;;4999748;28;20088;-75
2024/03/02 06:52:18;;;;;;;0.73;0.73;;;16.80;71.70;;;;;;4966955;28;20038;-74
2024/03/02 06:54:44;;;;;;;0.70;0.70;;;16.80;70.90;;;;;;4987202;28;20049;-75
2024/03/02 06:57:09;;;;;;;2.05;0.93;;;16.80;71.00;;;;;;4979676;28;20045;-75
2024/03/02 06:59:35;;;;;;;1.98;1.20;;;16.70;70.90;;;;;;4953573;28;20132;-75
2024/03/02 07:02:01;;;;;;;0.95;0.63;;;16.80;71.00;;;;;;4970994;28;20045;-75
2024/03/02 07:04:27;;;;;;;1.75;0.85;;;16.70;70.90;;;;;;5000653;28;20107;-76
2024/03/02 07:06:52;;;;;;;0.80;0.80;;;16.70;70.90;;;;;;5001156;28;20042;-75
2024/03/02 07:09:22;;;;;;;0.70;0.70;;;16.80;70.60;;;;;;4983250;28;20054;-74
2024/03/02 07:11:48;;;;;;;1.02;1.00;;;16.80;70.60;;;;;;4988075;28;20065;-74
2024/03/02 07:14:13;;;;;;;1.42;0.82;;;16.80;70.70;;;;;;4980931;28;20172;-75
2024/03/02 07:16:40;;;;;;;0.82;0.80;;;16.70;70.90;;;;;;4981829;28;20460;-75
2024/03/02 07:19:06;;;;;;;1.67;0.52;;;16.70;70.90;;;;;;4984970;28;20614;-75
2024/03/02 07:21:33;;;;;;;1.48;1.00;;;16.80;70.70;;;;;;4983652;28;20034;-75
2024/03/02 07:23:59;;;;;;;1.00;0.60;;;16.70;70.90;;;;;;4969393;28;20680;-75
2024/03/02 07:26:24;;;;;;;1.52;0.90;;;16.70;71.20;;;;;;5002407;28;20677;-75
2024/03/02 07:28:50;;;;;;;1.75;0.50;;;16.70;70.90;;;;;;4969793;28;20058;-75
2024/03/02 07:31:16;;;;;;;1.58;0.80;;;16.60;71.10;;;;;;4968297;28;20038;-74
2024/03/02 07:33:43;;;;;;;1.30;0.60;;;16.60;71.00;;;;;;4980639;28;20042;-75
2024/03/02 07:36:08;;;;;;;0.60;0.60;;;16.60;71.00;;;;;;4982610;28;20052;-75
2024/03/02 07:38:35;;;;;;;0.60;0.52;;;16.70;71.90;;;;;;4969454;28;20125;-75
2024/03/02 07:41:00;;;;;;;1.17;0.90;;;16.60;71.00;;;;;;5003488;28;20045;-75
2024/03/02 07:43:35;;;;;;;1.25;0.70;;;16.60;71.00;;;;;;5023184;28;20460;-76
2024/03/02 07:46:02;;;;;;;1.35;0.60;;;16.60;70.90;;;;;;4982821;28;20116;-76
2024/03/02 07:48:28;;;;;;;0.77;0.70;;;16.60;70.90;;;;;;4966317;28;20126;-76
2024/03/02 07:50:54;;;;;;;2.72;1.05;;;16.60;70.80;;;;;;4997541;28;20125;-76
2024/03/02 07:53:19;;;;;;;0.80;0.60;;;16.60;70.80;;;;;;5014016;28;20045;-76
2024/03/02 07:55:45;;;;;;;1.08;0.60;;;16.60;70.80;;;;;;5016812;28;20538;-76
2024/03/02 07:58:11;;;;;;;1.10;0.77;;;16.60;70.80;;;;;;4987555;28;20100;-76
2024/03/02 08:00:38;;;;;;;0.70;0.70;;;16.60;70.80;;;;;;4985128;28;20030;-76
2024/03/02 08:03:04;;;;;;;2.13;0.80;;;16.60;70.80;;;;;;4978675;28;20054;-76
2024/03/02 08:05:29;;;;;;;0.98;0.90;;;16.50;70.70;;;;;;4982295;28;20049;-77
2024/03/02 08:07:55;;;;;;;0.73;0.60;;;16.60;70.70;;;;;;5005591;28;20526;-76
2024/03/02 08:10:20;;;;;;;0.70;0.70;;;16.60;70.70;;;;;;5003541;28;20492;-76
2024/03/02 08:12:46;;;;;;;0.75;0.70;;;16.60;70.70;;;;;;4986278;28;20046;-76
2024/03/02 08:15:14;;;;;;;1.10;0.73;;;16.50;70.70;;;;;;4984862;28;20030;-76
2024/03/02 08:17:48;;;;;;;0.57;0.50;;;16.50;70.70;;;;;;4983624;28;20098;-76
2024/03/02 08:20:13;;;;;;;1.00;0.68;;;16.50;70.70;;;;;;4971948;28;20034;-76
2024/03/02 08:22:39;;;;;;;2.97;1.35;;;16.50;70.70;;;;;;4998592;28;20038;-76
2024/03/02 08:25:05;;;;;;;0.88;0.50;;;16.50;70.60;;;;;;5001226;28;20030;-76
2024/03/02 08:27:32;;;;;;;0.73;0.60;;;16.50;70.70;;;;;;4984138;28;20034;-77
2024/03/02 08:29:57;;;;;;;0.68;0.68;;;16.50;71.40;;;;;;4985850;28;20038;-76
2024/03/02 08:32:23;;;;;;;0.50;0.50;;;16.50;70.60;;;;;;4986010;28;20065;-76
2024/03/02 08:34:48;;;;;;;2.03;0.70;;;16.50;70.70;;;;;;4986370;28;20042;-76
2024/03/02 08:37:14;;;;;;;0.77;0.60;;;16.50;70.70;;;;;;4977282;28;20042;-76
2024/03/02 08:39:39;;;;;;;0.98;0.63;;;16.50;70.60;;;;;;5017809;28;20571;-76
2024/03/02 08:42:05;;;;;;;0.85;0.60;;;16.50;70.50;;;;;;4984468;28;20470;-76
2024/03/02 08:44:31;;;;;;;0.55;0.50;;;16.50;70.50;;;;;;5002855;28;20038;-77
2024/03/02 08:46:56;;;;;;;0.82;0.50;;;16.50;70.50;;;;;;5003206;28;20178;-76
2024/03/02 08:49:22;;;;;;;0.85;0.50;;;16.50;70.50;;;;;;4966407;28;20061;-76
2024/03/02 08:51:54;;;;;;;0.55;0.55;;;16.50;70.60;;;;;;4983011;28;20041;-76
2024/03/02 08:54:23;;;;;;;0.68;0.50;;;16.50;70.50;;;;;;4972028;28;20042;-76
2024/03/02 08:56:51;;;;;;;0.50;0.40;;;16.40;70.30;;;;;;4985029;28;20054;-76
2024/03/02 08:59:17;;;;;;;0.80;0.52;;;16.50;70.90;;;;;;4989097;28;20034;-75
2024/03/02 09:01:43;;;;;;;0.32;0.30;;;16.50;70.20;;;;;;4967905;28;20518;-76
2024/03/02 09:04:09;;;;;;;0.45;0.40;;;16.50;70.20;;;;;;4972468;28;20023;-76
2024/03/02 09:06:34;;;;;;;1.30;0.50;;;16.50;70.70;;;;;;4982486;28;20042;-76
2024/03/02 09:09:00;;;;;;;0.52;0.52;;;16.50;70.10;;;;;;4989234;28;20047;-76
2024/03/02 09:11:26;;;;;;;1.40;0.60;;;16.50;69.70;;;;;;4968099;28;20033;-76
2024/03/02 09:13:51;;;;;;;0.60;0.40;;;16.50;69.60;;;;;;4985455;28;20062;-76
2024/03/02 09:16:17;;;;;;;0.55;0.52;;;16.50;69.60;;;;;;4971200;28;20037;-76
2024/03/02 09:18:42;;;;;;;0.60;0.60;;;16.50;69.60;;;;;;4987051;28;20046;-75
2024/03/02 09:21:08;;;;;;;0.50;0.50;;;16.50;69.40;;;;;;4986958;28;20138;-76
2024/03/02 09:23:33;;;;;;;0.70;0.50;;;16.50;69.20;;;;;;4986000;28;20054;-77
2024/03/02 09:25:59;;;;;;;0.65;0.65;;;16.50;68.80;;;;;;4971134;28;20041;-76
2024/03/02 09:28:25;;;;;;;1.40;0.55;;;16.50;69.30;;;;;;4292702;28;10000737;-75
2024/03/02 09:30:51;;;;;;;0.70;0.50;;;16.60;69.00;;;;;;4966861;28;20149;-76
2024/03/02 09:33:16;;;;;;;0.45;0.45;;;16.60;68.50;;;;;;5000516;28;20042;-76
2024/03/02 09:35:42;;;;;;;0.40;0.40;;;16.70;68.40;;;;;;4966107;28;20419;-75
2024/03/02 09:38:07;;;;;;;0.43;0.40;;;16.70;68.30;;;;;;4986308;28;20072;-76
2024/03/02 09:40:33;;;;;;;1.90;0.50;;;16.80;68.40;;;;;;4965027;28;20042;-77
2024/03/02 09:42:58;;;;;;;0.55;0.50;;;16.80;68.20;;;;;;4968184;28;20058;-76
2024/03/02 09:45:24;;;;;;;0.85;0.40;;;16.80;69.10;;;;;;4983479;28;20047;-76
2024/03/02 09:47:50;;;;;;;1.60;0.47;;;16.90;69.40;;;;;;4977064;28;20039;-76
2024/03/02 09:50:16;;;;;;;0.68;0.55;;;16.90;69.60;;;;;;4984307;28;20507;-75
2024/03/02 09:52:47;;;;;;;0.55;0.50;;;16.90;69.70;;;;;;4966525;28;20477;-75
2024/03/02 09:55:13;;;;;;;0.50;0.50;;;17.00;70.10;;;;;;4986318;28;20100;-75
2024/03/02 09:57:41;;;;;;;0.88;0.40;;;17.00;70.20;;;;;;4981653;28;20072;-76
2024/03/02 10:00:08;;;;;;;0.60;0.60;;;16.90;70.10;;;;;;4966774;28;20496;-75
2024/03/02 10:02:33;;;;;;;0.63;0.47;;;17.00;70.20;;;;;;4966477;28;20052;-77
2024/03/02 10:04:59;;;;;;;1.10;0.50;;;16.90;70.00;;;;;;4970340;28;20031;-76
2024/03/02 10:07:24;;;;;;;0.40;0.40;;;17.00;70.00;;;;;;4984326;28;20041;-75
2024/03/02 10:09:51;;;;;;;0.60;0.60;;;17.00;70.20;;;;;;4984178;28;20042;-75
2024/03/02 10:12:17;;;;;;;0.80;0.73;;;17.00;70.00;;;;;;4967458;28;20042;-75
2024/03/02 10:14:43;;;;;;;0.60;0.60;;;17.10;70.00;;;;;;4984831;28;20046;-76
2024/03/02 10:17:10;;;;;;;0.50;0.50;;;17.10;69.90;;;;;;4985831;28;20077;-76
2024/03/02 10:19:36;;;;;;;0.68;0.60;;;17.10;69.70;;;;;;4984448;28;20053;-76
2024/03/02 10:22:03;;;;;;;1.13;0.50;;;17.20;69.70;;;;;;4982958;28;20058;-75
2024/03/02 10:24:47;;;;;;;0.57;0.55;;;17.10;69.70;;;;;;4983736;28;20043;-75
2024/03/02 10:27:16;;;;;;;0.63;0.50;;;17.10;69.60;;;;;;4968143;28;20054;-76
2024/03/02 10:29:43;;;;;;;0.50;0.50;;;17.20;69.80;;;;;;4952465;28;20049;-76
2024/03/02 10:32:09;;;;;;;0.57;0.50;;;17.10;69.70;;;;;;4982069;28;20046;-75
2024/03/02 10:34:35;;;;;;;0.40;0.40;;;17.10;69.60;;;;;;4983404;28;20177;-76
2024/03/02 10:37:01;;;;;;;0.50;0.50;;;17.00;70.20;;;;;;4979060;28;20040;-76
2024/03/02 10:39:27;;;;;;;0.45;0.45;;;17.00;70.30;;;;;;4950808;28;20563;-76
2024/03/02 10:41:53;;;;;;;0.80;0.80;;;17.00;70.00;;;;;;4982018;28;20101;-75
2024/03/02 10:44:18;;;;;;;0.60;0.43;;;17.00;70.00;;;;;;4983987;28;20137;-75
2024/03/02 10:46:44;;;;;;;0.50;0.40;;;17.10;70.10;;;;;;4983742;28;20380;-76
2024/03/02 10:49:09;;;;;;;0.50;0.50;;;17.10;70.10;;;;;;4967375;28;20076;-77
2024/03/02 10:51:36;;;;;;;1.70;0.65;;;17.10;70.10;;;;;;4965793;28;20038;-76
2024/03/02 10:54:03;;;;;;;0.57;0.40;;;17.20;69.90;;;;;;4980459;28;20105;-76
2024/03/02 10:56:32;;;;;;;0.88;0.60;;;17.10;70.00;;;;;;4996513;28;20684;-75
2024/03/02 10:59:24;;;;;;;0.80;0.50;;;17.10;69.90;;;;;;4983060;28;20045;-75
2024/03/02 11:01:50;;;;;;;2.03;0.60;;;17.20;70.30;;;;;;4968375;28;20053;-76
2024/03/02 11:04:17;;;;;;;0.60;0.60;;;17.10;70.50;;;;;;4983425;28;20125;-76
2024/03/02 11:06:47;;;;;;;0.40;0.40;;;17.20;70.30;;;;;;5000695;28;20120;-76
2024/03/02 11:09:13;;;;;;;2.25;0.63;;;17.10;70.40;;;;;;4983362;28;20065;-76
2024/03/02 11:11:41;;;;;;;3.05;1.30;;;17.10;70.30;;;;;;4982556;28;20444;-77
2024/03/02 11:14:11;;;;;;;2.30;1.00;;;17.10;71.90;;;;;;4986716;28;20104;-75
2024/03/02 11:16:38;;;;;;;16.02;3.00;;;17.10;72.30;;;;;;4969073;28;20066;-76
2024/03/02 11:19:13;;;;;;;6.75;2.05;;;17.20;75.80;;;;;;4968706;28;20069;-76
2024/03/02 11:21:40;;;;;;;7.35;1.90;;;17.20;71.40;;;;;;4949763;28;20062;-76
2024/03/02 11:24:24;;;;;;;5.15;1.60;;;17.20;72.80;;;;;;4960655;28;20117;-76
2024/03/02 11:26:52;;;;;;;5.38;1.30;;;17.20;71.30;;;;;;4982118;28;20041;-76
2024/03/02 11:29:42;;;;;;;3.13;1.42;;;17.20;70.40;;;;;;4985018;28;21168;-76
2024/03/02 11:32:20;;;;;;;2.95;1.63;;;17.30;70.10;;;;;;4968552;28;20519;-76
2024/03/02 11:34:47;;;;;;;5.68;2.03;;;17.30;69.60;;;;;;4983369;28;20038;-76
2024/03/02 11:37:16;;;;;;;3.22;1.95;;;17.40;71.00;;;;;;4984914;28;20038;-76
2024/03/02 11:39:43;;;;;;;5.85;1.90;;;17.40;74.60;;;;;;4984480;28;20038;-76
2024/03/02 11:42:09;;;;;;;5.40;1.52;;;17.40;75.20;;;;;;4969675;28;20061;-76
2024/03/02 11:44:35;;;;;;;2.10;1.10;;;17.50;74.40;;;;;;4970072;28;20046;-76
2024/03/02 11:47:02;;;;;;;2.55;1.40;;;17.50;74.80;;;;;;4982448;28;20169;-76
2024/03/02 11:49:48;;;;;;;3.47;1.45;;;17.50;74.40;;;;;;4983113;28;22142;-78
2024/03/02 11:52:21;;;;;;;1.65;0.98;;;17.40;74.20;;;;;;4624712;28;9999608;-78
2024/03/02 11:54:47;;;;;;;4.32;1.00;;;17.50;73.50;;;;;;4947691;28;20077;-77
2024/03/02 11:57:19;;;;;;;4.28;0.95;;;17.50;72.80;;;;;;4974932;28;20050;-76
2024/03/02 11:59:45;;;;;;;2.35;0.73;;;17.50;72.80;;;;;;4960839;28;20054;-76
2024/03/02 12:02:16;;;;;;;3.17;1.02;;;17.50;72.00;;;;;;4976419;28;20065;-77
2024/03/02 12:04:42;;;;;;;3.08;0.90;;;17.50;71.70;;;;;;4964454;28;20129;-77
2024/03/02 12:07:08;;;;;;;2.70;1.05;;;17.50;71.50;;;;;;4948266;28;20141;-76
2024/03/02 12:09:34;;;;;;;4.63;1.10;;;17.50;71.60;;;;;;4979202;28;20410;-77
2024/03/02 12:12:06;;;;;;;2.60;0.88;;;17.40;71.50;;;;;;4981211;28;21429;-76
2024/03/02 12:14:32;;;;;;;1.23;0.63;;;17.40;71.60;;;;;;4976295;28;20519;-76
2024/03/02 12:17:01;;;;;;;1.52;0.60;;;17.40;71.50;;;;;;4978061;28;20054;-76
2024/03/02 12:19:27;;;;;;;1.42;0.73;;;17.40;71.30;;;;;;4997700;28;20503;-77
2024/03/02 12:21:53;;;;;;;2.05;0.90;;;17.40;71.40;;;;;;4976751;28;20043;-77
2024/03/02 12:24:18;;;;;;;2.70;0.77;;;17.40;71.30;;;;;;4959151;28;20053;-76
2024/03/02 12:26:44;;;;;;;1.45;0.60;;;17.40;71.40;;;;;;4963428;28;20049;-77
2024/03/02 12:29:11;;;;;;;2.42;0.80;;;17.40;71.30;;;;;;4985162;28;20050;-76
2024/03/02 12:31:37;;;;;;;3.13;0.80;;;17.50;71.30;;;;;;4985341;28;20045;-77
2024/03/02 12:34:03;;;;;;;1.52;0.77;;;17.40;71.20;;;;;;4967533;28;20054;-77
2024/03/02 12:36:29;;;;;;;1.00;0.70;;;17.40;71.30;;;;;;4984509;28;20045;-76
2024/03/02 12:38:55;;;;;;;1.83;0.50;;;17.40;71.50;;;;;;4982955;28;20054;-76
2024/03/02 12:41:20;;;;;;;2.03;0.73;;;17.30;71.50;;;;;;4986689;28;20045;-77
2024/03/02 12:43:49;;;;;;;1.17;0.75;;;17.40;71.50;;;;;;4985197;28;20034;-77
2024/03/02 12:46:15;;;;;;;1.75;0.75;;;17.40;71.20;;;;;;4980664;28;20058;-77